Time;durP1;ratioP1;P1;durP2;ratioP2;P2;SDS_P1;SDS_P2;PMS_P1;PMS_P2;Temp;Humidity;BMP_temperature;BMP_pressure;BME280_temperature;BME280_humidity;BME280_pressure;Samples;Min_cycle;Max_cycle;Signal;HPM_P1;HPM_P2
2022/09/06 00:00:17;;;;;;;7.78;4.57;;;21.30;82.90;;;;;;5074502;28;20461;-57
2022/09/06 00:02:43;;;;;;;9.93;4.20;;;21.30;83.20;;;;;;5074087;28;20056;-57
2022/09/06 00:05:11;;;;;;;10.85;4.50;;;20.90;91.40;;;;;;5074078;28;20044;-57
2022/09/06 00:07:37;;;;;;;7.40;4.72;;;21.20;83.80;;;;;;5072765;28;20041;-57
2022/09/06 00:10:04;;;;;;;7.22;4.00;;;21.50;92.00;;;;;;5074012;28;20040;-57
2022/09/06 00:12:30;;;;;;;8.82;4.50;;;21.10;84.30;;;;;;5073950;28;20040;-57
2022/09/06 00:14:55;;;;;;;9.48;4.68;;;21.10;84.40;;;;;;5074063;28;20505;-56
2022/09/06 00:17:21;;;;;;;10.07;4.68;;;20.70;91.70;;;;;;5072874;28;20048;-56
2022/09/06 00:19:47;;;;;;;10.82;4.35;;;20.90;91.60;;;;;;5073853;28;20138;-58
2022/09/06 00:22:13;;;;;;;10.80;4.43;;;21.00;85.10;;;;;;5073228;28;20056;-58
2022/09/06 00:24:38;;;;;;;7.90;4.80;;;20.80;93.10;;;;;;5072825;28;20396;-55
2022/09/06 00:27:06;;;;;;;7.28;4.40;;;20.80;91.80;;;;;;5073886;28;20032;-55
2022/09/06 00:29:31;;;;;;;6.07;4.25;;;21.10;92.00;;;;;;5074073;28;20119;-55
2022/09/06 00:31:58;;;;;;;7.53;4.70;;;21.00;86.10;;;;;;5073727;28;20111;-55
2022/09/06 00:34:24;;;;;;;11.57;4.72;;;21.00;93.70;;;;;;5072427;28;20036;-55
2022/09/06 00:36:49;;;;;;;8.52;4.80;;;20.90;86.60;;;;;;5073438;28;20059;-58
2022/09/06 00:39:15;;;;;;;7.78;4.50;;;20.80;92.70;;;;;;5073680;28;20041;-55
2022/09/06 00:41:41;;;;;;;7.50;4.50;;;20.90;87.10;;;;;;5073743;28;20460;-63
2022/09/06 00:44:07;;;;;;;10.00;4.90;;;20.90;87.40;;;;;;5073656;28;20123;-63
2022/09/06 00:46:35;;;;;;;11.00;4.63;;;20.70;92.90;;;;;;5073482;28;20040;-62
2022/09/06 00:49:08;;;;;;;8.63;4.70;;;20.90;87.90;;;;;;5073323;28;20044;-64
2022/09/06 00:51:34;;;;;;;8.00;4.45;;;20.80;92.50;;;;;;5073607;28;20048;-62
2022/09/06 00:54:06;;;;;;;7.65;4.70;;;20.70;93.20;;;;;;5073331;28;20119;-65
2022/09/06 00:56:37;;;;;;;9.40;4.80;;;20.80;88.80;;;;;;5073516;28;20048;-64
2022/09/06 00:59:02;;;;;;;12.82;4.60;;;20.80;89.00;;;;;;5073526;28;20131;-62
2022/09/06 01:01:28;;;;;;;9.02;4.40;;;20.70;93.50;;;;;;5071950;28;20123;-62
2022/09/06 01:03:54;;;;;;;13.65;4.70;;;20.20;93.60;;;;;;5072842;28;20091;-62
2022/09/06 01:06:25;;;;;;;7.03;4.68;;;20.10;93.80;;;;;;5072986;28;20052;-63
2022/09/06 01:09:19;;;;;;;8.88;4.68;;;20.60;93.70;;;;;;5073297;28;20083;-62
2022/09/06 01:12:15;;;;;;;11.00;5.03;;;20.60;95.40;;;;;;5073378;28;20040;-65
2022/09/06 01:15:02;;;;;;;7.40;4.40;;;20.40;94.40;;;;;;5073275;28;20033;-64
2022/09/06 01:17:49;;;;;;;6.35;4.78;;;20.60;90.40;;;;;;5073347;28;20043;-64
2022/09/06 01:20:30;;;;;;;9.27;4.70;;;20.60;90.60;;;;;;5073029;28;20044;-64
2022/09/06 01:23:20;;;;;;;10.30;4.95;;;20.50;94.00;;;;;;5072877;28;20128;-65
2022/09/06 01:26:14;;;;;;;8.68;4.70;;;20.50;91.10;;;;;;5073440;28;20045;-64
2022/09/06 01:28:43;;;;;;;7.57;4.60;;;20.50;96.10;;;;;;5073006;28;20047;-64
2022/09/06 01:31:26;;;;;;;9.30;4.60;;;20.40;95.00;;;;;;5073200;28;20064;-64
2022/09/06 01:34:18;;;;;;;9.85;4.72;;;20.50;95.30;;;;;;5073012;28;20121;-64
2022/09/06 01:36:51;;;;;;;9.63;4.90;;;20.40;91.90;;;;;;5072036;28;20040;-65
2022/09/06 01:39:31;;;;;;;8.43;4.68;;;20.30;95.70;;;;;;5077104;28;20373;-65
2022/09/06 01:42:02;;;;;;;10.18;5.18;;;20.40;92.30;;;;;;5077191;28;20059;-65
2022/09/06 01:44:28;;;;;;;9.77;4.55;;;19.60;96.60;;;;;;5077163;28;20097;-64
2022/09/06 01:47:34;;;;;;;9.50;4.93;;;20.30;92.90;;;;;;5076837;28;20120;-64
2022/09/06 01:50:31;;;;;;;8.40;4.70;;;20.40;96.80;;;;;;5068407;28;20123;-64
2022/09/06 01:53:25;;;;;;;12.07;4.85;;;20.70;98.50;;;;;;5075325;28;20116;-64
2022/09/06 01:56:21;;;;;;;9.18;4.90;;;20.20;93.40;;;;;;5076637;28;20377;-64
2022/09/06 01:59:14;;;;;;;7.70;4.85;;;20.60;98.50;;;;;;5076890;28;20045;-64
2022/09/06 02:02:02;;;;;;;6.85;5.13;;;20.20;98.50;;;;;;5075190;28;20377;-63
2022/09/06 02:04:42;;;;;;;7.97;5.10;;;20.10;94.00;;;;;;5075620;28;20123;-64
2022/09/06 02:07:23;;;;;;;10.40;4.63;;;20.20;97.80;;;;;;5076495;28;20488;-64
2022/09/06 02:10:14;;;;;;;9.13;5.22;;;19.30;97.80;;;;;;5076518;28;20071;-64
2022/09/06 02:12:44;;;;;;;7.47;5.50;;;19.40;98.30;;;;;;5076067;28;20045;-64
2022/09/06 02:15:15;;;;;;;9.85;5.18;;;20.10;94.60;;;;;;5076497;28;20062;-64
2022/09/06 02:17:50;;;;;;;8.55;5.00;;;20.10;94.60;;;;;;5076534;28;20123;-64
2022/09/06 02:20:19;;;;;;;;;;;20.20;94.70;;;;;;5076603;28;20503;-64
2022/09/06 02:22:48;;;;;;;10.45;5.00;;;20.50;99.00;;;;;;5076627;28;20045;-64
2022/09/06 02:25:24;;;;;;;8.45;5.20;;;20.00;98.10;;;;;;5075859;28;20037;-64
2022/09/06 02:27:49;;;;;;;7.32;4.95;;;20.10;94.90;;;;;;5074792;28;20044;-63
2022/09/06 02:30:15;;;;;;;6.05;5.10;;;20.10;95.00;;;;;;5076027;28;20062;-63
2022/09/06 02:32:54;;;;;;;11.23;5.45;;;20.20;99.30;;;;;;5076262;28;20090;-63
2022/09/06 02:35:20;;;;;;;9.15;5.30;;;20.00;98.80;;;;;;5076183;28;20037;-64
2022/09/06 02:37:46;;;;;;;8.50;5.30;;;19.40;99.90;;;;;;5075783;28;20050;-64
2022/09/06 02:40:11;;;;;;;12.05;5.15;;;20.00;95.80;;;;;;5076048;28;20108;-63
2022/09/06 02:42:38;;;;;;;10.65;5.20;;;20.00;95.90;;;;;;5076384;28;20044;-64
2022/09/06 02:45:04;;;;;;;8.77;5.18;;;20.00;96.10;;;;;;5076251;28;20097;-63
2022/09/06 02:47:30;;;;;;;8.52;5.10;;;20.00;96.20;;;;;;5075532;28;20041;-64
2022/09/06 02:49:56;;;;;;;8.65;5.30;;;20.00;96.40;;;;;;5074612;28;20043;-64
2022/09/06 02:52:21;;;;;;;10.02;5.45;;;20.10;99.90;;;;;;5075897;28;20037;-64
2022/09/06 02:54:47;;;;;;;9.27;5.38;;;22.50;99.90;;;;;;5075734;28;20507;-63
2022/09/06 02:57:13;;;;;;;8.20;5.03;;;19.90;99.90;;;;;;5075755;28;20468;-64
2022/09/06 02:59:38;;;;;;;7.85;5.30;;;19.90;97.20;;;;;;5075728;28;20042;-63
2022/09/06 03:02:04;;;;;;;11.48;5.22;;;19.90;99.90;;;;;;5075281;28;20492;-63
2022/09/06 03:04:30;;;;;;;11.15;5.65;;;19.90;99.90;;;;;;5075897;28;20465;-64
2022/09/06 03:06:56;;;;;;;9.63;5.30;;;19.80;99.90;;;;;;5075714;28;20063;-64
2022/09/06 03:09:22;;;;;;;10.85;5.40;;;19.70;99.90;;;;;;5075411;28;20036;-64
2022/09/06 03:11:47;;;;;;;12.13;5.80;;;20.00;99.90;;;;;;5075354;28;20116;-64
2022/09/06 03:14:15;;;;;;;9.40;5.90;;;19.80;98.00;;;;;;5075451;28;20040;-64
2022/09/06 03:16:40;;;;;;;9.05;5.50;;;19.50;99.90;;;;;;5075518;28;20189;-64
2022/09/06 03:19:06;;;;;;;12.63;6.07;;;19.70;98.20;;;;;;5075357;28;20033;-64
2022/09/06 03:21:32;;;;;;;9.95;5.80;;;19.70;98.20;;;;;;5075337;28;20045;-64
2022/09/06 03:23:58;;;;;;;9.15;5.60;;;20.10;99.90;;;;;;5075156;28;20499;-63
2022/09/06 03:26:24;;;;;;;10.52;5.95;;;19.50;99.90;;;;;;5074970;28;20041;-64
2022/09/06 03:28:50;;;;;;;12.27;5.57;;;19.70;98.30;;;;;;5074842;28;20075;-63
2022/09/06 03:31:16;;;;;;;8.25;5.85;;;19.50;99.90;;;;;;5075222;28;20047;-63
2022/09/06 03:33:41;;;;;;;10.93;5.80;;;19.70;98.40;;;;;;5074717;28;20494;-65
2022/09/06 03:36:07;;;;;;;9.10;5.65;;;20.00;99.90;;;;;;5074957;28;20050;-64
2022/09/06 03:38:33;;;;;;;11.45;5.90;;;19.60;99.90;;;;;;5075057;28;20036;-64
2022/09/06 03:40:59;;;;;;;8.45;5.70;;;19.70;99.90;;;;;;5074575;28;20498;-64
2022/09/06 03:43:26;;;;;;;11.75;5.70;;;19.70;98.60;;;;;;5074705;28;20118;-64
2022/09/06 03:45:56;;;;;;;8.32;5.60;;;20.00;99.90;;;;;;5074710;28;20028;-64
2022/09/06 03:48:23;;;;;;;10.85;6.03;;;19.60;99.90;;;;;;5074806;28;20047;-64
2022/09/06 03:50:53;;;;;;;12.10;5.97;;;19.60;98.70;;;;;;5074734;28;20068;-64
2022/09/06 03:53:19;;;;;;;10.98;5.90;;;19.70;98.70;;;;;;5074469;28;20130;-64
2022/09/06 03:55:46;;;;;;;10.15;6.20;;;19.50;99.90;;;;;;5074573;28;20040;-64
2022/09/06 03:58:12;;;;;;;12.60;5.93;;;19.20;99.90;;;;;;5074213;28;20036;-64
2022/09/06 04:00:38;;;;;;;9.88;6.20;;;19.60;98.80;;;;;;5074291;28;20044;-64
2022/09/06 04:03:05;;;;;;;17.70;6.30;;;19.60;99.90;;;;;;5073987;28;20059;-64
2022/09/06 04:05:31;;;;;;;8.23;6.15;;;19.60;98.90;;;;;;5074514;28;20131;-64
2022/09/06 04:07:56;;;;;;;8.48;6.32;;;19.60;99.00;;;;;;5072867;28;20116;-64
2022/09/06 04:10:22;;;;;;;10.18;6.15;;;19.80;99.90;;;;;;5074173;28;20503;-64
2022/09/06 04:12:48;;;;;;;9.20;6.35;;;19.40;99.90;;;;;;5074047;28;20527;-64
2022/09/06 04:15:13;;;;;;;15.65;6.45;;;19.40;99.90;;;;;;5074090;28;20055;-64
2022/09/06 04:17:44;;;;;;;12.88;5.97;;;19.80;99.90;;;;;;5074064;28;20048;-64
2022/09/06 04:20:09;;;;;;;9.00;6.05;;;19.60;99.30;;;;;;5074333;28;20400;-64
2022/09/06 04:22:37;;;;;;;7.45;6.20;;;19.60;99.90;;;;;;5073828;28;20042;-64
2022/09/06 04:25:03;;;;;;;9.25;6.47;;;19.60;99.40;;;;;;5073930;28;20052;-64
2022/09/06 04:27:29;;;;;;;10.38;6.45;;;19.30;99.90;;;;;;5073990;28;20103;-64
2022/09/06 04:29:55;;;;;;;8.27;6.40;;;19.70;99.90;;;;;;5073745;28;20051;-64
2022/09/06 04:32:22;;;;;;;9.85;5.95;;;19.70;99.90;;;;;;5073587;28;20102;-64
2022/09/06 04:34:48;;;;;;;10.30;6.28;;;19.70;99.90;;;;;;5073572;28;20530;-64
2022/09/06 04:37:18;;;;;;;16.08;6.82;;;19.50;99.70;;;;;;5071711;28;20068;-64
2022/09/06 04:39:45;;;;;;;12.65;6.20;;;18.60;99.90;;;;;;5059749;28;20045;-57
2022/09/06 04:42:11;;;;;;;7.85;6.18;;;19.30;99.90;;;;;;5071374;28;20036;-57
2022/09/06 04:44:36;;;;;;;10.23;6.45;;;18.50;99.90;;;;;;5072018;28;20039;-57
2022/09/06 04:47:18;;;;;;;10.63;6.95;;;19.50;99.90;;;;;;5072239;28;20078;-57
2022/09/06 04:49:44;;;;;;;9.77;6.32;;;19.50;99.90;;;;;;5072165;28;20507;-57
2022/09/06 04:52:10;;;;;;;9.20;6.57;;;19.50;99.90;;;;;;5072532;28;20048;-57
2022/09/06 04:54:36;;;;;;;12.52;6.75;;;20.10;99.90;;;;;;5072558;28;20036;-57
2022/09/06 04:57:02;;;;;;;10.18;6.80;;;19.70;99.90;;;;;;5072393;28;20049;-57
2022/09/06 04:59:28;;;;;;;11.07;6.50;;;19.40;99.90;;;;;;5071572;28;20068;-57
2022/09/06 05:01:54;;;;;;;12.73;6.70;;;19.40;99.90;;;;;;5073134;28;20094;-57
2022/09/06 05:04:20;;;;;;;12.05;7.05;;;19.40;99.90;;;;;;5072944;28;20496;-57
2022/09/06 05:06:46;;;;;;;15.55;6.95;;;19.30;99.90;;;;;;5073417;28;20036;-58
2022/09/06 05:09:11;;;;;;;14.73;6.72;;;19.50;99.90;;;;;;5071715;28;20048;-58
2022/09/06 05:11:37;;;;;;;15.98;6.70;;;18.30;99.90;;;;;;5070232;28;20040;-58
2022/09/06 05:14:03;;;;;;;10.25;6.68;;;19.10;99.90;;;;;;5071430;28;20041;-58
2022/09/06 05:16:28;;;;;;;13.02;6.97;;;19.40;99.90;;;;;;5070281;28;20028;-57
2022/09/06 05:18:54;;;;;;;11.45;6.82;;;19.30;99.90;;;;;;5070365;28;20036;-57
2022/09/06 05:21:23;;;;;;;12.13;7.10;;;20.20;99.90;;;;;;5071165;28;20036;-57
2022/09/06 05:23:49;;;;;;;13.27;7.28;;;19.60;99.90;;;;;;5070948;28;20036;-57
2022/09/06 05:26:14;;;;;;;11.60;7.20;;;19.40;99.90;;;;;;5071202;28;20047;-57
2022/09/06 05:28:40;;;;;;;19.40;7.70;;;19.30;99.90;;;;;;5071056;28;20048;-57
2022/09/06 05:31:06;;;;;;;18.48;7.30;;;19.00;99.90;;;;;;5072639;28;20044;-57
2022/09/06 05:33:31;;;;;;;16.35;8.40;;;19.30;99.90;;;;;;5073049;28;20037;-57
2022/09/06 05:35:57;;;;;;;11.40;7.75;;;19.00;99.90;;;;;;5072797;28;20115;-57
2022/09/06 05:38:24;;;;;;;10.98;7.68;;;19.00;99.90;;;;;;5073036;28;20040;-58
2022/09/06 05:40:49;;;;;;;14.80;7.80;;;18.90;99.90;;;;;;5072662;28;20472;-58
2022/09/06 05:43:15;;;;;;;12.45;7.70;;;19.20;99.90;;;;;;5073163;28;20052;-58
2022/09/06 05:45:45;;;;;;;15.52;8.00;;;19.30;99.90;;;;;;5072684;28;20041;-64
2022/09/06 05:48:10;;;;;;;11.13;7.95;;;18.80;99.90;;;;;;5072912;28;20045;-63
2022/09/06 05:50:39;;;;;;;12.73;8.02;;;18.80;99.90;;;;;;5072992;28;20043;-64
2022/09/06 05:53:07;;;;;;;14.57;8.50;;;19.10;99.90;;;;;;5073125;28;20393;-64
2022/09/06 05:55:32;;;;;;;13.63;8.60;;;19.10;99.90;;;;;;5072521;28;20061;-64
2022/09/06 05:57:58;;;;;;;15.82;8.88;;;18.60;99.90;;;;;;5072785;28;20041;-64
2022/09/06 06:00:24;;;;;;;12.70;8.68;;;19.00;99.90;;;;;;5072866;28;20036;-64
2022/09/06 06:02:49;;;;;;;18.83;9.23;;;18.90;99.90;;;;;;5072376;28;20500;-63
2022/09/06 06:05:15;;;;;;;13.40;9.30;;;19.30;99.90;;;;;;5072476;28;20045;-64
2022/09/06 06:07:42;;;;;;;16.00;9.23;;;18.70;99.90;;;;;;5072547;28;20124;-57
2022/09/06 06:10:08;;;;;;;13.90;9.38;;;18.70;99.90;;;;;;5072359;28;20362;-63
2022/09/06 06:12:34;;;;;;;16.58;9.40;;;18.60;99.90;;;;;;5072721;28;20047;-63
2022/09/06 06:15:00;;;;;;;10.45;9.35;;;18.60;99.90;;;;;;5072700;28;20036;-63
2022/09/06 06:17:26;;;;;;;19.90;9.32;;;18.60;99.90;;;;;;5072719;28;20074;-57
2022/09/06 06:19:52;;;;;;;17.02;9.82;;;18.60;99.90;;;;;;5072519;28;20036;-63
2022/09/06 06:22:18;;;;;;;16.33;9.75;;;18.20;99.90;;;;;;5072465;28;20511;-57
2022/09/06 06:24:43;;;;;;;12.15;9.73;;;18.70;99.90;;;;;;5075132;28;20040;-57
2022/09/06 06:27:09;;;;;;;17.88;10.02;;;18.70;99.90;;;;;;5075975;28;20430;-57
2022/09/06 06:29:34;;;;;;;16.73;9.93;;;18.80;99.90;;;;;;5076340;28;20040;-57
2022/09/06 06:32:01;;;;;;;12.07;9.48;;;18.40;99.90;;;;;;5076253;28;20044;-57
2022/09/06 06:34:26;;;;;;;13.82;9.77;;;19.10;99.90;;;;;;5076057;28;20061;-57
2022/09/06 06:36:52;;;;;;;16.70;9.95;;;17.90;99.90;;;;;;5076001;28;20492;-57
2022/09/06 06:39:17;;;;;;;15.82;10.02;;;18.30;99.90;;;;;;5075998;28;20041;-57
2022/09/06 06:41:44;;;;;;;18.85;9.60;;;18.60;99.90;;;;;;5076150;28;20051;-57
2022/09/06 06:44:09;;;;;;;12.88;9.55;;;18.40;99.90;;;;;;5076050;28;20037;-57
2022/09/06 06:46:37;;;;;;;14.93;9.38;;;18.50;99.90;;;;;;5075868;28;20056;-57
2022/09/06 06:49:06;;;;;;;20.58;9.85;;;18.50;99.90;;;;;;5076147;28;20044;-57
2022/09/06 06:51:35;;;;;;;20.17;9.90;;;18.80;99.90;;;;;;5075996;28;20384;-57
2022/09/06 06:54:01;;;;;;;14.65;10.30;;;18.60;99.90;;;;;;5075495;28;20082;-57
2022/09/06 06:56:30;;;;;;;17.20;10.32;;;18.90;99.90;;;;;;5075773;28;20036;-57
2022/09/06 06:58:58;;;;;;;12.52;10.35;;;18.70;99.90;;;;;;5075521;28;20040;-57
2022/09/06 07:01:26;;;;;;;11.18;9.98;;;19.10;99.90;;;;;;5075293;28;20488;-57
2022/09/06 07:03:52;;;;;;;16.40;10.70;;;18.90;99.90;;;;;;5075662;28;20059;-58
2022/09/06 07:06:19;;;;;;;23.38;10.88;;;18.60;99.90;;;;;;5075152;28;20045;-64
2022/09/06 07:08:45;;;;;;;15.77;10.75;;;18.60;99.90;;;;;;5075109;28;20040;-64
2022/09/06 07:11:13;;;;;;;17.10;11.30;;;18.70;99.90;;;;;;5075228;28;20079;-64
2022/09/06 07:13:39;;;;;;;17.10;11.07;;;18.80;99.90;;;;;;5075389;28;20043;-64
2022/09/06 07:16:11;;;;;;;16.50;11.43;;;19.30;99.90;;;;;;5075195;28;20353;-64
2022/09/06 07:18:40;;;;;;;17.42;11.30;;;18.80;99.90;;;;;;5075280;28;20091;-64
2022/09/06 07:21:11;;;;;;;18.05;11.82;;;18.80;99.90;;;;;;5075514;28;20052;-64
2022/09/06 07:23:37;;;;;;;17.77;11.90;;;18.80;99.90;;;;;;5075200;28;20041;-64
2022/09/06 07:26:03;;;;;;;19.48;11.90;;;18.80;99.90;;;;;;5075281;28;20121;-64
2022/09/06 07:28:30;;;;;;;16.42;11.60;;;;;;;;;;5073662;28;20036;-64
2022/09/06 07:30:57;;;;;;;16.80;12.80;;;21.30;99.90;;;;;;5075172;28;20040;-64
2022/09/06 07:33:23;;;;;;;18.83;11.88;;;19.30;99.90;;;;;;5075018;28;20051;-64
2022/09/06 07:36:01;;;;;;;15.75;11.32;;;19.30;99.90;;;;;;5074115;28;20033;-64
2022/09/06 07:38:30;;;;;;;16.27;12.75;;;18.80;99.90;;;;;;5073920;28;20040;-64
2022/09/06 07:41:01;;;;;;;18.48;13.15;;;19.10;99.90;;;;;;5075177;28;20067;-57
2022/09/06 07:43:27;;;;;;;17.10;12.20;;;18.70;99.90;;;;;;5074827;28;20036;-57
2022/09/06 07:46:11;;;;;;;16.88;11.63;;;19.90;99.90;;;;;;5074732;28;20052;-58
2022/09/06 07:48:39;;;;;;;18.95;12.05;;;20.20;99.90;;;;;;5074682;28;20191;-57
2022/09/06 07:51:12;;;;;;;20.58;11.35;;;20.60;99.90;;;;;;5074525;28;20045;-57
2022/09/06 07:53:40;;;;;;;15.55;11.07;;;20.80;99.90;;;;;;5074431;28;20480;-57
2022/09/06 07:56:08;;;;;;;18.35;12.00;;;20.60;99.90;;;;;;5074908;28;20044;-57
2022/09/06 07:58:34;;;;;;;15.70;11.68;;;21.10;99.90;;;;;;5074154;28;20044;-58
2022/09/06 08:01:28;;;;;;;14.55;11.45;;;21.20;99.90;;;;;;5072091;28;20154;-63
2022/09/06 08:03:56;;;;;;;16.13;11.52;;;21.50;99.90;;;;;;5074222;28;20085;-64
2022/09/06 08:06:22;;;;;;;17.13;11.45;;;22.50;99.90;;;;;;5074562;28;20044;-64
2022/09/06 08:08:49;;;;;;;18.55;10.68;;;22.10;99.90;;;;;;5072728;28;20078;-64
2022/09/06 08:11:14;;;;;;;19.45;11.15;;;23.40;99.90;;;;;;5074014;28;20042;-66
2022/09/06 08:13:41;;;;;;;16.85;11.05;;;22.90;99.90;;;;;;5073111;28;20040;-64
2022/09/06 08:16:08;;;;;;;13.43;10.73;;;22.40;99.90;;;;;;5074184;28;20039;-64
2022/09/06 08:18:38;;;;;;;16.73;11.05;;;22.10;99.90;;;;;;5074061;28;20048;-64
2022/09/06 08:21:06;;;;;;;16.85;10.27;;;22.70;99.90;;;;;;5074167;28;20472;-58
2022/09/06 08:23:33;;;;;;;16.85;11.02;;;22.70;99.90;;;;;;5073713;28;20585;-57
2022/09/06 08:25:58;;;;;;;16.15;9.95;;;22.50;99.90;;;;;;5074031;28;20044;-57
2022/09/06 08:28:24;;;;;;;19.33;10.60;;;22.80;99.90;;;;;;5073919;28;20094;-58
2022/09/06 08:30:51;;;;;;;16.63;10.75;;;23.00;99.90;;;;;;5073840;28;20094;-57
2022/09/06 08:33:20;;;;;;;20.98;10.05;;;23.30;99.90;;;;;;5073991;28;20388;-57
2022/09/06 08:35:59;;;;;;;11.43;9.90;;;24.80;99.90;;;;;;5073695;28;20107;-58
2022/09/06 08:38:26;;;;;;;13.90;10.07;;;24.60;99.90;;;;;;5073691;28;20524;-58
2022/09/06 08:40:53;;;;;;;14.98;9.93;;;24.60;99.90;;;;;;5073775;28;20048;-57
2022/09/06 08:43:21;;;;;;;16.40;10.68;;;24.60;99.90;;;;;;5073479;28;20503;-57
2022/09/06 08:45:54;;;;;;;23.23;10.43;;;24.60;99.90;;;;;;5073560;28;20044;-57
2022/09/06 08:48:22;;;;;;;16.17;9.15;;;24.50;99.90;;;;;;5073250;28;20086;-55
2022/09/06 08:51:13;;;;;;;13.10;10.23;;;24.80;99.90;;;;;;5073588;28;20086;-55
2022/09/06 08:53:45;;;;;;;18.35;10.80;;;25.10;99.90;;;;;;5073400;28;20048;-55
2022/09/06 08:56:27;;;;;;;17.38;10.80;;;25.30;99.90;;;;;;5073261;28;20048;-55
2022/09/06 08:58:58;;;;;;;14.68;10.70;;;25.30;99.90;;;;;;5073116;28;20048;-56
2022/09/06 09:01:31;;;;;;;12.05;10.02;;;25.50;98.80;;;;;;5073466;28;20044;-55
2022/09/06 09:04:03;;;;;;;13.38;10.38;;;25.60;98.40;;;;;;5073092;28;20064;-55
2022/09/06 09:06:31;;;;;;;17.02;10.32;;;25.90;98.20;;;;;;5073204;28;20083;-55
2022/09/06 09:09:08;;;;;;;12.95;9.20;;;26.50;99.90;;;;;;5072162;28;20072;-55
2022/09/06 09:11:35;;;;;;;17.80;9.20;;;26.60;97.80;;;;;;5073074;28;20498;-55
2022/09/06 09:14:34;;;;;;;14.85;9.20;;;27.30;99.20;;;;;;5073134;28;20037;-55
2022/09/06 09:17:11;;;;;;;10.63;8.73;;;27.00;96.00;;;;;;5073361;28;20036;-55
2022/09/06 09:19:39;;;;;;;16.52;10.02;;;27.00;98.10;;;;;;5073289;28;20041;-57
2022/09/06 09:22:05;;;;;;;12.05;9.80;;;27.30;95.30;;;;;;5073249;28;20115;-57
2022/09/06 09:24:31;;;;;;;14.35;9.43;;;27.10;99.80;;;;;;5072804;28;20086;-57
2022/09/06 09:27:04;;;;;;;15.75;8.43;;;26.90;97.40;;;;;;5073124;28;20051;-56
2022/09/06 09:29:30;;;;;;;10.63;7.70;;;27.00;94.70;;;;;;5072979;28;20086;-56
2022/09/06 09:31:56;;;;;;;11.10;8.30;;;27.00;94.70;;;;;;5073127;28;20127;-57
2022/09/06 09:34:36;;;;;;;11.55;7.97;;;27.80;99.00;;;;;;5072788;28;20041;-56
2022/09/06 09:37:23;;;;;;;16.77;7.53;;;26.80;97.90;;;;;;5073292;28;20044;-57
2022/09/06 09:39:52;;;;;;;12.70;7.30;;;26.80;97.60;;;;;;5072727;28;20370;-57
2022/09/06 09:42:29;;;;;;;14.18;7.63;;;27.20;95.90;;;;;;5071345;28;20519;-57
2022/09/06 09:44:56;;;;;;;12.07;8.20;;;26.90;97.50;;;;;;5072800;28;20472;-56
2022/09/06 09:47:30;;;;;;;7.90;6.40;;;26.10;95.10;;;;;;5072882;28;20369;-56
2022/09/06 09:49:56;;;;;;;8.03;6.87;;;26.70;97.10;;;;;;5072916;28;20067;-55
2022/09/06 09:52:28;;;;;;;17.55;7.95;;;26.70;93.00;;;;;;5072870;28;20040;-56
2022/09/06 09:55:03;;;;;;;14.93;7.28;;;26.60;96.10;;;;;;5072629;28;20483;-56
2022/09/06 09:57:41;;;;;;;10.80;7.03;;;26.50;93.40;;;;;;5073077;28;20040;-56
2022/09/06 10:00:13;;;;;;;9.82;6.22;;;26.50;96.20;;;;;;5076897;28;20383;-56
2022/09/06 10:02:41;;;;;;;10.48;5.80;;;26.50;95.80;;;;;;5076450;28;20522;-56
2022/09/06 10:05:14;;;;;;;10.18;5.90;;;26.70;94.20;;;;;;5076506;28;20159;-56
2022/09/06 10:07:48;;;;;;;6.43;5.22;;;26.90;94.90;;;;;;5076251;28;20056;-56
2022/09/06 10:10:19;;;;;;;10.38;5.60;;;26.90;90.90;;;;;;5076761;28;20163;-56
2022/09/06 10:12:45;;;;;;;9.02;5.70;;;26.90;94.70;;;;;;5076598;28;20090;-56
2022/09/06 10:15:31;;;;;;;13.23;5.47;;;27.00;91.90;;;;;;5076294;28;20119;-56
2022/09/06 10:17:56;;;;;;;9.77;5.90;;;26.40;93.80;;;;;;5076148;28;20512;-56
2022/09/06 10:20:33;;;;;;;15.82;5.47;;;27.10;91.10;;;;;;5076455;28;20052;-56
2022/09/06 10:23:10;;;;;;;7.05;5.15;;;27.10;90.90;;;;;;5076477;28;20040;-56
2022/09/06 10:25:43;;;;;;;7.43;5.22;;;27.20;92.70;;;;;;5076256;28;20049;-56
2022/09/06 10:28:28;;;;;;;7.65;5.03;;;27.90;93.00;;;;;;5076352;28;20051;-56
2022/09/06 10:30:54;;;;;;;10.25;5.25;;;27.40;92.30;;;;;;5076334;28;20111;-56
2022/09/06 10:33:44;;;;;;;10.68;5.22;;;28.20;93.50;;;;;;5076221;28;20521;-56
2022/09/06 10:36:09;;;;;;;9.23;5.55;;;27.50;89.10;;;;;;5076107;28;20073;-56
2022/09/06 10:38:40;;;;;;;7.57;5.63;;;27.60;92.30;;;;;;5075872;28;20040;-56
2022/09/06 10:41:29;;;;;;;6.10;4.72;;;27.50;88.00;;;;;;5076163;28;20135;-56
2022/09/06 10:44:32;;;;;;;5.88;5.00;;;27.50;86.80;;;;;;5076510;28;20044;-66
2022/09/06 10:47:09;;;;;;;6.00;4.72;;;27.60;86.20;;;;;;5074827;28;20127;-66
2022/09/06 10:49:37;;;;;;;7.68;4.68;;;27.50;85.90;;;;;;5075612;28;20114;-66
2022/09/06 10:52:08;;;;;;;6.75;4.63;;;27.60;85.50;;;;;;5075846;28;20059;-66
2022/09/06 10:54:39;;;;;;;11.23;4.70;;;27.90;91.90;;;;;;5075104;28;20048;-66
2022/09/06 10:57:14;;;;;;;6.90;4.50;;;27.60;85.20;;;;;;5075993;28;20059;-66
2022/09/06 10:59:51;;;;;;;8.05;4.32;;;27.70;84.20;;;;;;5075301;28;20080;-66
2022/09/06 11:02:35;;;;;;;9.15;4.97;;;27.80;90.70;;;;;;5075451;28;20177;-66
2022/09/06 11:05:11;;;;;;;6.97;4.95;;;27.90;83.40;;;;;;5075441;28;20499;-66
2022/09/06 11:07:43;;;;;;;12.27;4.47;;;28.00;82.60;;;;;;5075363;28;20496;-66
2022/09/06 11:10:29;;;;;;;6.40;4.25;;;28.00;82.70;;;;;;5074084;28;20415;-66
2022/09/06 11:13:14;;;;;;;8.32;4.20;;;28.00;81.90;;;;;;5075373;28;20422;-66
2022/09/06 11:15:50;;;;;;;8.88;3.90;;;28.00;81.70;;;;;;5075180;28;20043;-66
2022/09/06 11:18:25;;;;;;;9.98;4.05;;;28.10;81.60;;;;;;5075514;28;20072;-66
2022/09/06 11:21:14;;;;;;;5.28;4.07;;;28.10;85.30;;;;;;5074799;28;20058;-66
2022/09/06 11:23:47;;;;;;;8.05;4.50;;;28.20;80.20;;;;;;5075374;28;20109;-66
2022/09/06 11:26:36;;;;;;;7.57;4.47;;;28.20;80.40;;;;;;5075097;28;20048;-66
2022/09/06 11:29:16;;;;;;;10.88;4.45;;;28.20;79.90;;;;;;5063936;28;20052;-66
2022/09/06 11:32:02;;;;;;;8.45;4.55;;;28.10;79.40;;;;;;5075133;28;20120;-66
2022/09/06 11:34:31;;;;;;;6.13;3.90;;;28.20;85.50;;;;;;5075183;28;20083;-66
2022/09/06 11:36:59;;;;;;;11.60;4.65;;;28.30;79.00;;;;;;5075119;28;20047;-66
2022/09/06 11:39:42;;;;;;;7.97;4.40;;;28.50;78.60;;;;;;5074496;28;20040;-67
2022/09/06 11:42:58;;;;;;;7.25;4.35;;;29.20;84.20;;;;;;5073574;28;20102;-67
2022/09/06 11:45:45;;;;;;;10.57;4.10;;;28.40;76.90;;;;;;5069830;28;20059;-66
2022/09/06 11:48:24;;;;;;;8.48;3.97;;;28.50;77.60;;;;;;5074841;28;20347;-67
2022/09/06 11:51:02;;;;;;;5.55;3.72;;;28.60;76.30;;;;;;5074584;28;20090;-67
2022/09/06 11:53:30;;;;;;;7.82;4.10;;;28.70;75.80;;;;;;5074488;28;20062;-67
2022/09/06 11:55:58;;;;;;;7.80;4.20;;;28.70;75.60;;;;;;5074562;28;20045;-67
2022/09/06 11:58:46;;;;;;;9.63;4.18;;;28.90;75.40;;;;;;5074628;28;20491;-66
2022/09/06 12:01:15;;;;;;;8.63;3.92;;;29.10;74.40;;;;;;5074495;28;20438;-66
2022/09/06 12:03:47;;;;;;;9.50;4.13;;;29.20;74.80;;;;;;5074253;28;20053;-66
2022/09/06 12:06:19;;;;;;;8.38;4.28;;;29.20;74.10;;;;;;5074228;28;20389;-66
2022/09/06 12:08:47;;;;;;;14.13;4.10;;;29.20;73.20;;;;;;5073278;28;20036;-67
2022/09/06 12:11:36;;;;;;;9.00;4.00;;;29.30;73.40;;;;;;5074125;28;20339;-67
2022/09/06 12:14:08;;;;;;;15.65;4.07;;;29.40;72.90;;;;;;5073065;28;20032;-67
2022/09/06 12:17:03;;;;;;;11.60;4.28;;;29.40;73.90;;;;;;5074684;28;20036;-68
2022/09/06 12:19:49;;;;;;;6.97;3.80;;;29.50;73.00;;;;;;5074322;28;20443;-67
2022/09/06 12:22:29;;;;;;;9.38;4.20;;;30.20;77.60;;;;;;5072428;28;20484;-67
2022/09/06 12:25:01;;;;;;;8.70;4.13;;;29.80;78.70;;;;;;5073997;28;20519;-67
2022/09/06 12:27:43;;;;;;;7.85;4.30;;;29.70;71.50;;;;;;5072874;28;20048;-67
2022/09/06 12:30:12;;;;;;;9.48;4.43;;;29.80;71.60;;;;;;5074009;28;20032;-67
2022/09/06 12:32:44;;;;;;;6.13;4.50;;;29.60;71.10;;;;;;5072592;28;20041;-67
2022/09/06 12:35:29;;;;;;;15.80;4.18;;;29.70;71.20;;;;;;5073681;28;20041;-68
2022/09/06 12:37:58;;;;;;;6.70;3.80;;;29.80;71.20;;;;;;5073985;28;20037;-67
2022/09/06 12:40:28;;;;;;;7.00;3.83;;;29.90;70.90;;;;;;5073847;28;20146;-67
2022/09/06 12:42:54;;;;;;;7.13;3.70;;;30.00;70.30;;;;;;5073713;28;20102;-68
2022/09/06 12:45:21;;;;;;;6.25;3.75;;;29.90;69.50;;;;;;5073496;28;20048;-68
2022/09/06 12:47:47;;;;;;;5.47;3.15;;;29.80;69.10;;;;;;5073652;28;20059;-69
2022/09/06 12:50:19;;;;;;;7.30;3.80;;;29.70;73.50;;;;;;5073863;28;20532;-68
2022/09/06 12:52:58;;;;;;;7.93;3.88;;;29.70;68.70;;;;;;5073514;28;20047;-68
2022/09/06 12:55:31;;;;;;;5.72;3.75;;;29.80;69.10;;;;;;5073676;28;20028;-68
2022/09/06 12:58:03;;;;;;;8.23;3.53;;;29.80;69.40;;;;;;5073651;28;20037;-67
2022/09/06 13:01:01;;;;;;;4.70;3.47;;;30.00;68.80;;;;;;5073185;28;20043;-66